sensor_id;sensor_type;location;lat;lon;timestamp;P1;durP1;ratioP1;P2;durP2;ratioP2
40807;SDS011;26523;52.504;13.498;2022-08-19T00:00:23;13.65;;;8.50;;
40807;SDS011;26523;52.504;13.498;2022-08-19T00:02:49;12.70;;;7.28;;
40807;SDS011;26523;52.504;13.498;2022-08-19T00:05:14;11.48;;;7.43;;
40807;SDS011;26523;52.504;13.498;2022-08-19T00:07:41;11.77;;;6.88;;
40807;SDS011;26523;52.504;13.498;2022-08-19T00:10:08;11.23;;;6.95;;
40807;SDS011;26523;52.504;13.498;2022-08-19T00:12:34;13.25;;;6.93;;
40807;SDS011;26523;52.504;13.498;2022-08-19T00:15:01;13.93;;;8.32;;
40807;SDS011;26523;52.504;13.498;2022-08-19T00:17:27;12.77;;;7.85;;
40807;SDS011;26523;52.504;13.498;2022-08-19T00:19:52;10.45;;;7.22;;
40807;SDS011;26523;52.504;13.498;2022-08-19T00:22:18;11.40;;;7.40;;
40807;SDS011;26523;52.504;13.498;2022-08-19T00:24:44;16.58;;;7.32;;
40807;SDS011;26523;52.504;13.498;2022-08-19T00:27:10;13.00;;;7.28;;
40807;SDS011;26523;52.504;13.498;2022-08-19T00:29:37;11.98;;;7.90;;
40807;SDS011;26523;52.504;13.498;2022-08-19T00:32:02;14.55;;;8.70;;
40807;SDS011;26523;52.504;13.498;2022-08-19T00:34:29;12.05;;;7.80;;
40807;SDS011;26523;52.504;13.498;2022-08-19T00:36:55;14.85;;;7.75;;
40807;SDS011;26523;52.504;13.498;2022-08-19T00:39:21;12.90;;;8.02;;
40807;SDS011;26523;52.504;13.498;2022-08-19T00:41:47;12.48;;;8.48;;
40807;SDS011;26523;52.504;13.498;2022-08-19T00:44:15;14.35;;;8.02;;
40807;SDS011;26523;52.504;13.498;2022-08-19T00:46:50;13.75;;;8.73;;
40807;SDS011;26523;52.504;13.498;2022-08-19T00:49:23;14.70;;;9.10;;
40807;SDS011;26523;52.504;13.498;2022-08-19T00:52:08;13.75;;;8.20;;
40807;SDS011;26523;52.504;13.498;2022-08-19T00:54:38;13.93;;;7.65;;
40807;SDS011;26523;52.504;13.498;2022-08-19T00:57:06;14.90;;;8.10;;
40807;SDS011;26523;52.504;13.498;2022-08-19T00:59:37;14.07;;;8.55;;
40807;SDS011;26523;52.504;13.498;2022-08-19T01:02:05;13.05;;;7.95;;
40807;SDS011;26523;52.504;13.498;2022-08-19T01:04:31;14.65;;;8.68;;
40807;SDS011;26523;52.504;13.498;2022-08-19T01:06:57;17.65;;;8.57;;
40807;SDS011;26523;52.504;13.498;2022-08-19T01:09:24;12.32;;;8.57;;
40807;SDS011;26523;52.504;13.498;2022-08-19T01:11:50;14.55;;;8.25;;
40807;SDS011;26523;52.504;13.498;2022-08-19T01:14:16;16.10;;;8.48;;
40807;SDS011;26523;52.504;13.498;2022-08-19T01:16:43;17.63;;;9.07;;
40807;SDS011;26523;52.504;13.498;2022-08-19T01:19:24;15.20;;;9.23;;
40807;SDS011;26523;52.504;13.498;2022-08-19T01:21:55;17.48;;;9.38;;
40807;SDS011;26523;52.504;13.498;2022-08-19T01:24:27;15.32;;;9.23;;
40807;SDS011;26523;52.504;13.498;2022-08-19T01:26:52;15.00;;;9.88;;
40807;SDS011;26523;52.504;13.498;2022-08-19T01:29:19;36.40;;;9.43;;
40807;SDS011;26523;52.504;13.498;2022-08-19T01:31:45;16.08;;;9.63;;
40807;SDS011;26523;52.504;13.498;2022-08-19T01:34:10;18.98;;;10.18;;
40807;SDS011;26523;52.504;13.498;2022-08-19T01:36:38;18.02;;;9.63;;
40807;SDS011;26523;52.504;13.498;2022-08-19T01:39:07;16.92;;;11.00;;
40807;SDS011;26523;52.504;13.498;2022-08-19T01:41:36;22.15;;;11.93;;
40807;SDS011;26523;52.504;13.498;2022-08-19T01:44:03;22.20;;;12.02;;
40807;SDS011;26523;52.504;13.498;2022-08-19T01:46:30;25.50;;;12.13;;
40807;SDS011;26523;52.504;13.498;2022-08-19T01:48:57;20.50;;;12.20;;
40807;SDS011;26523;52.504;13.498;2022-08-19T01:51:23;20.88;;;12.02;;
40807;SDS011;26523;52.504;13.498;2022-08-19T01:53:49;22.48;;;11.82;;
40807;SDS011;26523;52.504;13.498;2022-08-19T01:56:15;20.33;;;12.57;;
40807;SDS011;26523;52.504;13.498;2022-08-19T01:58:43;23.80;;;12.07;;
40807;SDS011;26523;52.504;13.498;2022-08-19T02:01:15;25.42;;;12.43;;
40807;SDS011;26523;52.504;13.498;2022-08-19T02:03:41;24.95;;;12.23;;
40807;SDS011;26523;52.504;13.498;2022-08-19T02:06:07;23.42;;;11.70;;
40807;SDS011;26523;52.504;13.498;2022-08-19T02:08:34;19.55;;;10.52;;
40807;SDS011;26523;52.504;13.498;2022-08-19T02:11:01;21.77;;;10.40;;
40807;SDS011;26523;52.504;13.498;2022-08-19T02:13:28;18.88;;;10.60;;
40807;SDS011;26523;52.504;13.498;2022-08-19T02:15:54;21.05;;;10.45;;
40807;SDS011;26523;52.504;13.498;2022-08-19T02:18:19;21.08;;;12.13;;
40807;SDS011;26523;52.504;13.498;2022-08-19T02:20:45;19.38;;;10.25;;
40807;SDS011;26523;52.504;13.498;2022-08-19T02:23:12;22.27;;;10.77;;
40807;SDS011;26523;52.504;13.498;2022-08-19T02:25:39;19.50;;;10.40;;
40807;SDS011;26523;52.504;13.498;2022-08-19T02:28:05;19.17;;;10.25;;
40807;SDS011;26523;52.504;13.498;2022-08-19T02:30:31;20.83;;;12.02;;
40807;SDS011;26523;52.504;13.498;2022-08-19T02:32:57;19.45;;;11.25;;
40807;SDS011;26523;52.504;13.498;2022-08-19T02:35:23;19.13;;;11.10;;
40807;SDS011;26523;52.504;13.498;2022-08-19T02:37:49;21.55;;;10.90;;
40807;SDS011;26523;52.504;13.498;2022-08-19T02:40:33;18.15;;;10.48;;
40807;SDS011;26523;52.504;13.498;2022-08-19T02:42:59;21.95;;;11.30;;
40807;SDS011;26523;52.504;13.498;2022-08-19T02:45:32;21.00;;;11.35;;
40807;SDS011;26523;52.504;13.498;2022-08-19T02:48:02;22.20;;;11.75;;
40807;SDS011;26523;52.504;13.498;2022-08-19T02:50:28;20.17;;;12.40;;
40807;SDS011;26523;52.504;13.498;2022-08-19T02:52:53;21.83;;;11.77;;
40807;SDS011;26523;52.504;13.498;2022-08-19T02:55:19;21.30;;;12.52;;
40807;SDS011;26523;52.504;13.498;2022-08-19T02:57:45;27.80;;;12.52;;
40807;SDS011;26523;52.504;13.498;2022-08-19T03:00:11;28.10;;;12.85;;
40807;SDS011;26523;52.504;13.498;2022-08-19T03:02:38;25.98;;;12.48;;
40807;SDS011;26523;52.504;13.498;2022-08-19T03:05:04;19.90;;;11.18;;
40807;SDS011;26523;52.504;13.498;2022-08-19T03:07:30;21.10;;;11.40;;
40807;SDS011;26523;52.504;13.498;2022-08-19T03:09:56;20.67;;;11.70;;
40807;SDS011;26523;52.504;13.498;2022-08-19T03:12:22;19.95;;;11.15;;
40807;SDS011;26523;52.504;13.498;2022-08-19T03:14:47;20.73;;;11.68;;
40807;SDS011;26523;52.504;13.498;2022-08-19T03:17:13;21.67;;;11.65;;
40807;SDS011;26523;52.504;13.498;2022-08-19T03:19:39;20.63;;;12.45;;
40807;SDS011;26523;52.504;13.498;2022-08-19T03:22:05;18.60;;;11.20;;
40807;SDS011;26523;52.504;13.498;2022-08-19T03:24:30;19.10;;;10.57;;
40807;SDS011;26523;52.504;13.498;2022-08-19T03:26:57;21.13;;;11.00;;
40807;SDS011;26523;52.504;13.498;2022-08-19T03:29:24;17.73;;;11.40;;
40807;SDS011;26523;52.504;13.498;2022-08-19T03:31:51;19.98;;;10.75;;
40807;SDS011;26523;52.504;13.498;2022-08-19T03:34:19;17.75;;;10.75;;
40807;SDS011;26523;52.504;13.498;2022-08-19T03:36:51;17.85;;;10.60;;
40807;SDS011;26523;52.504;13.498;2022-08-19T03:39:17;19.23;;;10.15;;
40807;SDS011;26523;52.504;13.498;2022-08-19T03:41:43;18.77;;;10.70;;
40807;SDS011;26523;52.504;13.498;2022-08-19T03:44:10;16.52;;;10.30;;
40807;SDS011;26523;52.504;13.498;2022-08-19T03:46:42;17.02;;;10.50;;
40807;SDS011;26523;52.504;13.498;2022-08-19T03:49:08;17.58;;;10.65;;
40807;SDS011;26523;52.504;13.498;2022-08-19T03:51:35;20.27;;;10.73;;
40807;SDS011;26523;52.504;13.498;2022-08-19T03:54:04;18.23;;;10.30;;
40807;SDS011;26523;52.504;13.498;2022-08-19T03:56:33;17.27;;;9.90;;
40807;SDS011;26523;52.504;13.498;2022-08-19T03:59:01;17.42;;;10.57;;
40807;SDS011;26523;52.504;13.498;2022-08-19T04:01:28;18.85;;;10.65;;
40807;SDS011;26523;52.504;13.498;2022-08-19T04:03:57;15.85;;;9.48;;
40807;SDS011;26523;52.504;13.498;2022-08-19T04:06:30;18.15;;;9.82;;
40807;SDS011;26523;52.504;13.498;2022-08-19T04:08:58;20.55;;;11.43;;
40807;SDS011;26523;52.504;13.498;2022-08-19T04:11:27;18.90;;;10.25;;
40807;SDS011;26523;52.504;13.498;2022-08-19T04:13:55;21.10;;;11.35;;
40807;SDS011;26523;52.504;13.498;2022-08-19T04:16:22;19.13;;;10.65;;
40807;SDS011;26523;52.504;13.498;2022-08-19T04:18:50;18.27;;;10.75;;
40807;SDS011;26523;52.504;13.498;2022-08-19T04:21:23;17.30;;;10.20;;
40807;SDS011;26523;52.504;13.498;2022-08-19T04:26:20;18.65;;;10.35;;
40807;SDS011;26523;52.504;13.498;2022-08-19T04:28:48;15.27;;;9.63;;
40807;SDS011;26523;52.504;13.498;2022-08-19T04:31:16;17.50;;;10.18;;
40807;SDS011;26523;52.504;13.498;2022-08-19T04:33:52;16.70;;;9.45;;
40807;SDS011;26523;52.504;13.498;2022-08-19T04:36:29;16.00;;;10.23;;
40807;SDS011;26523;52.504;13.498;2022-08-19T04:38:57;17.60;;;10.25;;
40807;SDS011;26523;52.504;13.498;2022-08-19T04:41:25;16.73;;;10.43;;
40807;SDS011;26523;52.504;13.498;2022-08-19T04:44:09;22.35;;;10.75;;
40807;SDS011;26523;52.504;13.498;2022-08-19T04:46:36;19.10;;;10.90;;
40807;SDS011;26523;52.504;13.498;2022-08-19T04:49:03;16.45;;;9.98;;
40807;SDS011;26523;52.504;13.498;2022-08-19T04:51:30;14.82;;;9.75;;
40807;SDS011;26523;52.504;13.498;2022-08-19T04:53:57;16.33;;;10.13;;
40807;SDS011;26523;52.504;13.498;2022-08-19T04:56:24;16.50;;;9.57;;
40807;SDS011;26523;52.504;13.498;2022-08-19T04:58:56;16.48;;;9.63;;
40807;SDS011;26523;52.504;13.498;2022-08-19T05:01:29;14.95;;;9.18;;
40807;SDS011;26523;52.504;13.498;2022-08-19T05:03:57;15.90;;;9.80;;
40807;SDS011;26523;52.504;13.498;2022-08-19T05:06:23;14.20;;;9.32;;
40807;SDS011;26523;52.504;13.498;2022-08-19T05:08:50;16.48;;;9.50;;
40807;SDS011;26523;52.504;13.498;2022-08-19T05:11:20;15.73;;;8.85;;
40807;SDS011;26523;52.504;13.498;2022-08-19T05:13:49;15.48;;;8.55;;
40807;SDS011;26523;52.504;13.498;2022-08-19T05:16:16;16.50;;;8.93;;
40807;SDS011;26523;52.504;13.498;2022-08-19T05:18:43;14.85;;;9.15;;
40807;SDS011;26523;52.504;13.498;2022-08-19T05:21:28;12.32;;;9.18;;
40807;SDS011;26523;52.504;13.498;2022-08-19T05:24:13;12.75;;;8.30;;
40807;SDS011;26523;52.504;13.498;2022-08-19T05:26:41;13.73;;;8.60;;
40807;SDS011;26523;52.504;13.498;2022-08-19T05:29:08;14.15;;;8.50;;
40807;SDS011;26523;52.504;13.498;2022-08-19T05:31:35;15.77;;;8.68;;
40807;SDS011;26523;52.504;13.498;2022-08-19T05:34:01;16.73;;;8.68;;
40807;SDS011;26523;52.504;13.498;2022-08-19T05:36:29;13.95;;;8.40;;
40807;SDS011;26523;52.504;13.498;2022-08-19T05:39:00;16.08;;;9.32;;
40807;SDS011;26523;52.504;13.498;2022-08-19T05:41:26;12.73;;;8.30;;
40807;SDS011;26523;52.504;13.498;2022-08-19T05:44:00;15.23;;;8.90;;
40807;SDS011;26523;52.504;13.498;2022-08-19T05:46:26;15.07;;;9.10;;
40807;SDS011;26523;52.504;13.498;2022-08-19T05:48:52;12.93;;;8.52;;
40807;SDS011;26523;52.504;13.498;2022-08-19T05:51:21;13.63;;;8.55;;
40807;SDS011;26523;52.504;13.498;2022-08-19T05:53:47;14.27;;;8.57;;
40807;SDS011;26523;52.504;13.498;2022-08-19T05:56:14;13.93;;;8.32;;
40807;SDS011;26523;52.504;13.498;2022-08-19T05:58:41;12.55;;;8.30;;
40807;SDS011;26523;52.504;13.498;2022-08-19T06:01:09;14.00;;;8.05;;
40807;SDS011;26523;52.504;13.498;2022-08-19T06:03:36;11.75;;;8.00;;
40807;SDS011;26523;52.504;13.498;2022-08-19T06:06:04;12.90;;;8.48;;
40807;SDS011;26523;52.504;13.498;2022-08-19T06:08:31;13.02;;;7.88;;
40807;SDS011;26523;52.504;13.498;2022-08-19T06:10:57;15.50;;;9.48;;
40807;SDS011;26523;52.504;13.498;2022-08-19T06:13:23;12.40;;;8.32;;
40807;SDS011;26523;52.504;13.498;2022-08-19T06:15:50;13.93;;;8.55;;
40807;SDS011;26523;52.504;13.498;2022-08-19T06:18:16;14.02;;;8.50;;
40807;SDS011;26523;52.504;13.498;2022-08-19T06:20:42;18.48;;;9.43;;
40807;SDS011;26523;52.504;13.498;2022-08-19T06:23:08;13.93;;;9.00;;
40807;SDS011;26523;52.504;13.498;2022-08-19T06:25:34;20.30;;;10.48;;
40807;SDS011;26523;52.504;13.498;2022-08-19T06:28:01;17.77;;;10.85;;
40807;SDS011;26523;52.504;13.498;2022-08-19T06:30:27;16.80;;;10.23;;
40807;SDS011;26523;52.504;13.498;2022-08-19T06:32:53;14.55;;;9.10;;
40807;SDS011;26523;52.504;13.498;2022-08-19T06:35:19;15.82;;;10.30;;
40807;SDS011;26523;52.504;13.498;2022-08-19T06:37:44;17.77;;;10.07;;
40807;SDS011;26523;52.504;13.498;2022-08-19T06:40:10;18.42;;;10.07;;
40807;SDS011;26523;52.504;13.498;2022-08-19T06:42:37;18.67;;;10.65;;
40807;SDS011;26523;52.504;13.498;2022-08-19T06:45:03;16.38;;;10.50;;
40807;SDS011;26523;52.504;13.498;2022-08-19T06:47:33;15.80;;;9.88;;
40807;SDS011;26523;52.504;13.498;2022-08-19T06:49:59;16.58;;;10.60;;
40807;SDS011;26523;52.504;13.498;2022-08-19T06:52:32;17.83;;;9.55;;
40807;SDS011;26523;52.504;13.498;2022-08-19T06:54:59;22.10;;;10.68;;
40807;SDS011;26523;52.504;13.498;2022-08-19T06:57:25;16.48;;;10.20;;
40807;SDS011;26523;52.504;13.498;2022-08-19T06:59:51;15.27;;;10.00;;
40807;SDS011;26523;52.504;13.498;2022-08-19T07:02:18;17.00;;;10.23;;
40807;SDS011;26523;52.504;13.498;2022-08-19T07:04:45;14.38;;;9.80;;
40807;SDS011;26523;52.504;13.498;2022-08-19T07:07:12;17.77;;;10.20;;
40807;SDS011;26523;52.504;13.498;2022-08-19T07:09:41;18.73;;;10.43;;
40807;SDS011;26523;52.504;13.498;2022-08-19T07:12:09;16.23;;;10.73;;
40807;SDS011;26523;52.504;13.498;2022-08-19T07:14:37;19.30;;;11.02;;
40807;SDS011;26523;52.504;13.498;2022-08-19T07:17:04;15.80;;;10.13;;
40807;SDS011;26523;52.504;13.498;2022-08-19T07:19:31;17.13;;;10.75;;
40807;SDS011;26523;52.504;13.498;2022-08-19T07:21:57;18.15;;;10.13;;
40807;SDS011;26523;52.504;13.498;2022-08-19T07:24:26;15.55;;;10.23;;
40807;SDS011;26523;52.504;13.498;2022-08-19T07:26:53;21.30;;;12.10;;
40807;SDS011;26523;52.504;13.498;2022-08-19T07:29:21;18.33;;;10.68;;
40807;SDS011;26523;52.504;13.498;2022-08-19T07:31:49;17.98;;;11.15;;
40807;SDS011;26523;52.504;13.498;2022-08-19T07:34:20;18.55;;;10.88;;
40807;SDS011;26523;52.504;13.498;2022-08-19T07:36:46;17.83;;;10.95;;
40807;SDS011;26523;52.504;13.498;2022-08-19T07:39:45;17.23;;;10.63;;
40807;SDS011;26523;52.504;13.498;2022-08-19T07:42:06;16.42;;;11.05;;
40807;SDS011;26523;52.504;13.498;2022-08-19T07:44:33;17.92;;;11.57;;
40807;SDS011;26523;52.504;13.498;2022-08-19T07:46:59;19.80;;;10.45;;
40807;SDS011;26523;52.504;13.498;2022-08-19T07:49:26;16.30;;;10.93;;
40807;SDS011;26523;52.504;13.498;2022-08-19T07:51:54;15.90;;;11.00;;
40807;SDS011;26523;52.504;13.498;2022-08-19T07:54:24;19.15;;;12.65;;
40807;SDS011;26523;52.504;13.498;2022-08-19T07:56:51;23.38;;;12.35;;
40807;SDS011;26523;52.504;13.498;2022-08-19T07:59:18;22.95;;;11.30;;
40807;SDS011;26523;52.504;13.498;2022-08-19T08:01:44;18.52;;;11.23;;
40807;SDS011;26523;52.504;13.498;2022-08-19T08:04:10;18.88;;;11.55;;
40807;SDS011;26523;52.504;13.498;2022-08-19T08:06:54;19.05;;;11.48;;
40807;SDS011;26523;52.504;13.498;2022-08-19T08:09:39;19.67;;;10.63;;
40807;SDS011;26523;52.504;13.498;2022-08-19T08:12:08;16.35;;;10.75;;
40807;SDS011;26523;52.504;13.498;2022-08-19T08:14:38;16.33;;;10.13;;
40807;SDS011;26523;52.504;13.498;2022-08-19T08:17:16;18.52;;;12.15;;
40807;SDS011;26523;52.504;13.498;2022-08-19T08:19:47;18.98;;;11.73;;
40807;SDS011;26523;52.504;13.498;2022-08-19T08:22:15;15.75;;;9.90;;
40807;SDS011;26523;52.504;13.498;2022-08-19T08:25:14;18.60;;;10.85;;
40807;SDS011;26523;52.504;13.498;2022-08-19T08:27:42;16.05;;;10.70;;
40807;SDS011;26523;52.504;13.498;2022-08-19T08:30:10;21.50;;;11.57;;
40807;SDS011;26523;52.504;13.498;2022-08-19T08:32:42;20.20;;;12.03;;
40807;SDS011;26523;52.504;13.498;2022-08-19T08:35:09;14.38;;;10.07;;
40807;SDS011;26523;52.504;13.498;2022-08-19T08:37:36;13.98;;;9.75;;
40807;SDS011;26523;52.504;13.498;2022-08-19T08:40:05;16.58;;;9.48;;
40807;SDS011;26523;52.504;13.498;2022-08-19T08:42:40;12.85;;;8.00;;
40807;SDS011;26523;52.504;13.498;2022-08-19T08:45:13;13.07;;;9.18;;
40807;SDS011;26523;52.504;13.498;2022-08-19T08:47:43;15.70;;;9.25;;
40807;SDS011;26523;52.504;13.498;2022-08-19T08:50:20;13.32;;;9.05;;
40807;SDS011;26523;52.504;13.498;2022-08-19T08:52:50;13.32;;;8.27;;
40807;SDS011;26523;52.504;13.498;2022-08-19T08:55:22;12.90;;;8.90;;
40807;SDS011;26523;52.504;13.498;2022-08-19T08:57:54;11.98;;;7.88;;
40807;SDS011;26523;52.504;13.498;2022-08-19T09:00:35;14.13;;;8.52;;
40807;SDS011;26523;52.504;13.498;2022-08-19T09:03:03;13.95;;;8.93;;
40807;SDS011;26523;52.504;13.498;2022-08-19T09:05:55;12.05;;;8.57;;
40807;SDS011;26523;52.504;13.498;2022-08-19T09:10:51;17.48;;;9.07;;
40807;SDS011;26523;52.504;13.498;2022-08-19T09:16:10;13.25;;;9.00;;
40807;SDS011;26523;52.504;13.498;2022-08-19T09:18:43;14.88;;;8.82;;
40807;SDS011;26523;52.504;13.498;2022-08-19T09:21:21;18.50;;;10.73;;
40807;SDS011;26523;52.504;13.498;2022-08-19T09:23:48;16.80;;;9.43;;
40807;SDS011;26523;52.504;13.498;2022-08-19T09:26:16;14.95;;;10.13;;
40807;SDS011;26523;52.504;13.498;2022-08-19T09:28:44;18.00;;;9.23;;
40807;SDS011;26523;52.504;13.498;2022-08-19T09:31:11;18.55;;;10.68;;
40807;SDS011;26523;52.504;13.498;2022-08-19T09:33:45;16.83;;;10.25;;
40807;SDS011;26523;52.504;13.498;2022-08-19T09:36:13;13.90;;;9.65;;
40807;SDS011;26523;52.504;13.498;2022-08-19T09:38:40;16.25;;;9.25;;
40807;SDS011;26523;52.504;13.498;2022-08-19T09:41:07;16.65;;;10.27;;
40807;SDS011;26523;52.504;13.498;2022-08-19T09:43:36;15.82;;;10.10;;
40807;SDS011;26523;52.504;13.498;2022-08-19T09:46:02;14.48;;;10.25;;
40807;SDS011;26523;52.504;13.498;2022-08-19T09:48:34;14.95;;;10.20;;
40807;SDS011;26523;52.504;13.498;2022-08-19T09:51:13;13.95;;;9.98;;
40807;SDS011;26523;52.504;13.498;2022-08-19T09:53:42;14.52;;;10.52;;
40807;SDS011;26523;52.504;13.498;2022-08-19T09:56:09;19.70;;;10.75;;
40807;SDS011;26523;52.504;13.498;2022-08-19T09:58:36;17.08;;;10.63;;
40807;SDS011;26523;52.504;13.498;2022-08-19T10:01:02;13.82;;;9.35;;
40807;SDS011;26523;52.504;13.498;2022-08-19T10:03:29;17.45;;;10.82;;
40807;SDS011;26523;52.504;13.498;2022-08-19T10:05:56;14.35;;;10.20;;
40807;SDS011;26523;52.504;13.498;2022-08-19T10:08:28;14.38;;;9.50;;
40807;SDS011;26523;52.504;13.498;2022-08-19T10:10:56;12.60;;;9.70;;
40807;SDS011;26523;52.504;13.498;2022-08-19T10:13:23;16.05;;;9.70;;
40807;SDS011;26523;52.504;13.498;2022-08-19T10:15:52;12.65;;;8.80;;
40807;SDS011;26523;52.504;13.498;2022-08-19T10:18:20;16.10;;;9.65;;
40807;SDS011;26523;52.504;13.498;2022-08-19T10:20:46;19.25;;;10.20;;
40807;SDS011;26523;52.504;13.498;2022-08-19T10:23:13;16.10;;;8.98;;
40807;SDS011;26523;52.504;13.498;2022-08-19T10:25:40;15.10;;;9.63;;
40807;SDS011;26523;52.504;13.498;2022-08-19T10:28:07;12.95;;;9.32;;
40807;SDS011;26523;52.504;13.498;2022-08-19T10:30:33;14.75;;;9.05;;
40807;SDS011;26523;52.504;13.498;2022-08-19T10:33:00;14.13;;;8.52;;
40807;SDS011;26523;52.504;13.498;2022-08-19T10:35:26;13.98;;;8.82;;
40807;SDS011;26523;52.504;13.498;2022-08-19T10:37:53;12.38;;;8.52;;
40807;SDS011;26523;52.504;13.498;2022-08-19T10:40:19;14.15;;;7.65;;
40807;SDS011;26523;52.504;13.498;2022-08-19T10:42:44;13.07;;;7.80;;
40807;SDS011;26523;52.504;13.498;2022-08-19T10:45:10;11.95;;;7.68;;
40807;SDS011;26523;52.504;13.498;2022-08-19T10:47:36;13.63;;;8.07;;
40807;SDS011;26523;52.504;13.498;2022-08-19T10:50:02;13.48;;;8.10;;
40807;SDS011;26523;52.504;13.498;2022-08-19T10:52:48;12.20;;;8.20;;
40807;SDS011;26523;52.504;13.498;2022-08-19T10:55:14;10.45;;;7.47;;
40807;SDS011;26523;52.504;13.498;2022-08-19T10:57:58;13.27;;;8.05;;
40807;SDS011;26523;52.504;13.498;2022-08-19T11:00:24;14.52;;;8.30;;
40807;SDS011;26523;52.504;13.498;2022-08-19T11:02:51;12.18;;;7.68;;
40807;SDS011;26523;52.504;13.498;2022-08-19T11:05:17;11.90;;;8.20;;
40807;SDS011;26523;52.504;13.498;2022-08-19T11:07:43;13.38;;;8.13;;
40807;SDS011;26523;52.504;13.498;2022-08-19T11:10:10;14.90;;;8.25;;
40807;SDS011;26523;52.504;13.498;2022-08-19T11:12:38;15.40;;;8.10;;
40807;SDS011;26523;52.504;13.498;2022-08-19T11:15:08;13.57;;;8.27;;
40807;SDS011;26523;52.504;13.498;2022-08-19T11:17:36;16.73;;;9.32;;
40807;SDS011;26523;52.504;13.498;2022-08-19T11:20:06;14.48;;;8.55;;
40807;SDS011;26523;52.504;13.498;2022-08-19T11:22:32;14.05;;;8.25;;
40807;SDS011;26523;52.504;13.498;2022-08-19T11:24:58;16.10;;;8.10;;
40807;SDS011;26523;52.504;13.498;2022-08-19T11:27:23;14.55;;;8.75;;
40807;SDS011;26523;52.504;13.498;2022-08-19T11:29:49;13.88;;;8.27;;
40807;SDS011;26523;52.504;13.498;2022-08-19T11:32:17;15.82;;;9.25;;
40807;SDS011;26523;52.504;13.498;2022-08-19T11:34:43;15.82;;;8.45;;
40807;SDS011;26523;52.504;13.498;2022-08-19T11:37:09;13.55;;;8.52;;
40807;SDS011;26523;52.504;13.498;2022-08-19T11:39:35;13.68;;;8.20;;
40807;SDS011;26523;52.504;13.498;2022-08-19T11:42:01;12.35;;;7.72;;
40807;SDS011;26523;52.504;13.498;2022-08-19T11:44:49;12.60;;;8.60;;
40807;SDS011;26523;52.504;13.498;2022-08-19T11:47:15;12.18;;;8.13;;
40807;SDS011;26523;52.504;13.498;2022-08-19T11:49:41;12.18;;;7.78;;
40807;SDS011;26523;52.504;13.498;2022-08-19T11:52:07;11.32;;;7.38;;
40807;SDS011;26523;52.504;13.498;2022-08-19T11:54:33;13.20;;;7.50;;
40807;SDS011;26523;52.504;13.498;2022-08-19T11:57:01;17.00;;;8.25;;
40807;SDS011;26523;52.504;13.498;2022-08-19T11:59:28;13.60;;;8.15;;
40807;SDS011;26523;52.504;13.498;2022-08-19T12:01:54;12.55;;;7.35;;
40807;SDS011;26523;52.504;13.498;2022-08-19T12:04:20;10.73;;;7.13;;
40807;SDS011;26523;52.504;13.498;2022-08-19T12:06:47;10.48;;;7.28;;
40807;SDS011;26523;52.504;13.498;2022-08-19T12:09:14;12.73;;;7.00;;
40807;SDS011;26523;52.504;13.498;2022-08-19T12:11:41;14.45;;;7.55;;
40807;SDS011;26523;52.504;13.498;2022-08-19T12:14:09;8.57;;;6.35;;
40807;SDS011;26523;52.504;13.498;2022-08-19T12:16:39;13.43;;;6.72;;
40807;SDS011;26523;52.504;13.498;2022-08-19T12:19:06;10.52;;;6.85;;
40807;SDS011;26523;52.504;13.498;2022-08-19T12:21:33;13.50;;;6.68;;
40807;SDS011;26523;52.504;13.498;2022-08-19T12:24:00;11.30;;;6.78;;
40807;SDS011;26523;52.504;13.498;2022-08-19T12:26:27;9.43;;;6.40;;
40807;SDS011;26523;52.504;13.498;2022-08-19T12:28:54;11.23;;;6.57;;
40807;SDS011;26523;52.504;13.498;2022-08-19T12:31:20;12.02;;;7.28;;
40807;SDS011;26523;52.504;13.498;2022-08-19T12:33:46;8.60;;;5.80;;
40807;SDS011;26523;52.504;13.498;2022-08-19T12:36:13;11.68;;;7.05;;
40807;SDS011;26523;52.504;13.498;2022-08-19T12:38:42;10.32;;;6.78;;
40807;SDS011;26523;52.504;13.498;2022-08-19T12:41:10;9.73;;;6.38;;
40807;SDS011;26523;52.504;13.498;2022-08-19T12:43:37;10.10;;;7.05;;
40807;SDS011;26523;52.504;13.498;2022-08-19T12:46:03;9.23;;;5.50;;
40807;SDS011;26523;52.504;13.498;2022-08-19T12:48:30;14.88;;;6.22;;
40807;SDS011;26523;52.504;13.498;2022-08-19T12:50:59;11.48;;;6.50;;
40807;SDS011;26523;52.504;13.498;2022-08-19T12:53:24;8.73;;;6.03;;
40807;SDS011;26523;52.504;13.498;2022-08-19T12:56:00;12.30;;;6.18;;
40807;SDS011;26523;52.504;13.498;2022-08-19T12:58:26;12.43;;;6.28;;
40807;SDS011;26523;52.504;13.498;2022-08-19T13:00:52;9.10;;;5.60;;
40807;SDS011;26523;52.504;13.498;2022-08-19T13:03:18;7.97;;;5.72;;
40807;SDS011;26523;52.504;13.498;2022-08-19T13:05:43;9.18;;;6.38;;
40807;SDS011;26523;52.504;13.498;2022-08-19T13:08:09;11.85;;;5.97;;
40807;SDS011;26523;52.504;13.498;2022-08-19T13:10:36;11.77;;;6.32;;
40807;SDS011;26523;52.504;13.498;2022-08-19T13:13:04;9.23;;;5.72;;
40807;SDS011;26523;52.504;13.498;2022-08-19T13:15:33;8.90;;;5.50;;
40807;SDS011;26523;52.504;13.498;2022-08-19T13:18:00;9.90;;;5.72;;
40807;SDS011;26523;52.504;13.498;2022-08-19T13:20:26;10.27;;;5.88;;
40807;SDS011;26523;52.504;13.498;2022-08-19T13:22:52;11.55;;;6.57;;
40807;SDS011;26523;52.504;13.498;2022-08-19T13:25:19;9.70;;;6.10;;
40807;SDS011;26523;52.504;13.498;2022-08-19T13:27:45;10.27;;;6.53;;
40807;SDS011;26523;52.504;13.498;2022-08-19T13:30:13;9.25;;;6.60;;
40807;SDS011;26523;52.504;13.498;2022-08-19T13:32:58;10.73;;;7.07;;
40807;SDS011;26523;52.504;13.498;2022-08-19T13:35:39;11.57;;;6.68;;
40807;SDS011;26523;52.504;13.498;2022-08-19T13:38:07;12.35;;;6.95;;
40807;SDS011;26523;52.504;13.498;2022-08-19T13:40:33;10.23;;;7.10;;
40807;SDS011;26523;52.504;13.498;2022-08-19T13:42:59;8.98;;;6.38;;
40807;SDS011;26523;52.504;13.498;2022-08-19T13:45:27;9.25;;;6.20;;
40807;SDS011;26523;52.504;13.498;2022-08-19T13:47:54;12.88;;;7.07;;
40807;SDS011;26523;52.504;13.498;2022-08-19T13:50:23;10.43;;;6.78;;
40807;SDS011;26523;52.504;13.498;2022-08-19T13:52:52;12.57;;;6.60;;
40807;SDS011;26523;52.504;13.498;2022-08-19T13:55:18;11.80;;;7.97;;
40807;SDS011;26523;52.504;13.498;2022-08-19T13:57:44;10.25;;;7.53;;
40807;SDS011;26523;52.504;13.498;2022-08-19T14:00:18;10.90;;;7.17;;
40807;SDS011;26523;52.504;13.498;2022-08-19T14:02:45;9.60;;;6.57;;
40807;SDS011;26523;52.504;13.498;2022-08-19T14:05:14;11.73;;;7.50;;
40807;SDS011;26523;52.504;13.498;2022-08-19T14:07:41;10.50;;;6.18;;
40807;SDS011;26523;52.504;13.498;2022-08-19T14:10:07;10.80;;;7.45;;
40807;SDS011;26523;52.504;13.498;2022-08-19T14:12:35;10.55;;;7.65;;
40807;SDS011;26523;52.504;13.498;2022-08-19T14:15:04;11.52;;;7.45;;
40807;SDS011;26523;52.504;13.498;2022-08-19T14:17:31;12.65;;;6.55;;
40807;SDS011;26523;52.504;13.498;2022-08-19T14:20:00;9.93;;;7.15;;
40807;SDS011;26523;52.504;13.498;2022-08-19T14:22:29;11.15;;;7.65;;
40807;SDS011;26523;52.504;13.498;2022-08-19T14:24:56;12.10;;;7.55;;
40807;SDS011;26523;52.504;13.498;2022-08-19T14:27:22;16.88;;;7.72;;
40807;SDS011;26523;52.504;13.498;2022-08-19T14:29:50;13.52;;;7.35;;
40807;SDS011;26523;52.504;13.498;2022-08-19T14:32:16;9.98;;;6.93;;